Time;durP1;ratioP1;P1;durP2;ratioP2;P2;SDS_P1;SDS_P2;PMS_P1;PMS_P2;Temp;Humidity;BMP_temperature;BMP_pressure;BME280_temperature;BME280_humidity;BME280_pressure;Samples;Min_cycle;Max_cycle;Signal;HPM_P1;HPM_P2
2023/05/01 00:03:01;;;;;;;8.93;6.80;;;;;;;-146.07;100.00;70291.31;10430508;28;20091;-76
2023/05/01 00:08:02;;;;;;;17.35;6.93;;;;;;;-146.07;100.00;70291.31;10428766;28;20267;-76
2023/05/01 00:13:03;;;;;;;11.23;7.10;;;;;;;-146.07;100.00;70291.31;10430404;28;20056;-76
2023/05/01 00:18:03;;;;;;;11.68;8.10;;;;;;;-146.07;100.00;70291.31;10429563;28;20029;-76
2023/05/01 00:23:04;;;;;;;10.43;7.17;;;;;;;-146.07;100.00;70291.31;10411529;28;20025;-76
2023/05/01 00:28:05;;;;;;;8.88;7.55;;;;;;;-146.07;100.00;70291.31;10429186;28;20634;-76
2023/05/01 00:33:05;;;;;;;12.95;7.90;;;;;;;-146.07;100.00;70291.31;10428621;28;20017;-77
2023/05/01 00:38:06;;;;;;;13.65;8.15;;;;;;;-146.07;100.00;70291.31;10429768;28;20098;-77
2023/05/01 00:43:06;;;;;;;9.03;7.33;;;;;;;-146.07;100.00;70291.31;10427124;28;20029;-76
2023/05/01 00:48:08;;;;;;;9.73;7.85;;;;;;;-146.07;100.00;70291.31;10402953;28;20754;-77
2023/05/01 00:53:09;;;;;;;13.60;8.43;;;;;;;-146.07;100.00;70291.31;10401549;28;20074;-77
2023/05/01 00:58:11;;;;;;;11.82;7.72;;;;;;;-146.07;100.00;70291.31;10428664;28;20056;-77
2023/05/01 01:03:11;;;;;;;13.85;8.65;;;;;;;-146.07;100.00;70291.31;10409561;28;20029;-76
2023/05/01 01:08:22;;;;;;;8.88;7.03;;;;;;;-146.07;100.00;70291.31;10409694;28;20392;-76
2023/05/01 01:13:38;;;;;;;10.52;7.95;;;;;;;-146.07;100.00;70291.31;10427669;28;20480;-76
2023/05/01 01:18:49;;;;;;;13.90;8.27;;;;;;;-146.07;100.00;70291.31;10427540;28;20087;-76
2023/05/01 01:24:03;;;;;;;13.00;8.13;;;;;;;-146.07;100.00;70291.31;10409123;28;20432;-77
2023/05/01 01:29:35;;;;;;;12.57;8.20;;;;;;;-146.07;100.00;70291.31;10426863;28;20032;-77
2023/05/01 01:34:44;;;;;;;15.27;9.75;;;;;;;-146.07;100.00;70291.31;10428393;28;20166;-77
2023/05/01 01:39:51;;;;;;;13.35;8.57;;;;;;;-146.07;100.00;70291.31;10395173;28;20519;-77
2023/05/01 01:44:54;;;;;;;15.32;8.65;;;;;;;-146.07;100.00;70291.31;10419528;28;20025;-77
2023/05/01 01:49:57;;;;;;;13.40;8.60;;;;;;;-146.07;100.00;70291.31;10426688;28;20050;-76
2023/05/01 01:55:04;;;;;;;15.20;8.00;;;;;;;-146.07;100.00;70291.31;10425801;28;20439;-77
2023/05/01 02:00:10;;;;;;;15.63;9.93;;;;;;;-146.07;100.00;70291.31;10426365;28;20035;-77
2023/05/01 02:05:15;;;;;;;13.85;8.43;;;;;;;-146.07;100.00;70291.31;10424403;28;20025;-77
2023/05/01 02:10:17;;;;;;;18.92;9.10;;;;;;;-146.07;100.00;70291.31;10425970;28;20100;-77
2023/05/01 02:15:19;;;;;;;11.95;8.77;;;;;;;-146.07;100.00;70291.31;10425473;28;20132;-77
2023/05/01 02:20:20;;;;;;;15.73;8.20;;;;;;;-146.07;100.00;70291.31;10407780;28;20049;-77
2023/05/01 02:25:21;;;;;;;15.05;8.20;;;;;;;-146.07;100.00;70291.31;10425761;28;20025;-77
2023/05/01 02:30:22;;;;;;;13.90;8.27;;;;;;;-146.07;100.00;70291.31;10424142;28;20029;-76
2023/05/01 02:35:23;;;;;;;13.75;8.88;;;;;;;-146.07;100.00;70291.31;10425485;28;20033;-76
2023/05/01 02:40:23;;;;;;;10.00;6.78;;;;;;;-146.07;100.00;70291.31;10425035;28;20453;-77
2023/05/01 02:45:25;;;;;;;18.25;7.03;;;;;;;-146.07;100.00;70291.31;10424474;28;20032;-76
2023/05/01 02:50:26;;;;;;;16.83;8.73;;;;;;;-146.07;100.00;70291.31;10406951;28;20067;-77
2023/05/01 02:55:28;;;;;;;15.73;8.63;;;;;;;-146.07;100.00;70291.31;10424437;28;20033;-76
2023/05/01 03:00:28;;;;;;;17.30;9.00;;;;;;;-146.07;100.00;70291.31;10424912;28;20025;-76
2023/05/01 03:05:29;;;;;;;18.13;10.07;;;;;;;-146.07;100.00;70291.31;10424714;28;20068;-77
2023/05/01 03:10:30;;;;;;;16.37;10.37;;;;;;;-146.07;100.00;70291.31;10432728;28;20020;-77
2023/05/01 03:15:30;;;;;;;12.75;8.50;;;;;;;-146.07;100.00;70291.31;10432944;28;20306;-77
2023/05/01 03:20:31;;;;;;;11.82;8.52;;;;;;;-146.07;100.00;70291.31;10432167;28;20048;-76
2023/05/01 03:25:31;;;;;;;17.00;11.07;;;;;;;-146.07;100.00;70291.31;10425007;28;20029;-76
2023/05/01 03:30:34;;;;;;;16.90;11.70;;;;;;;-146.07;100.00;70291.31;10431134;28;20078;-77
2023/05/01 03:35:34;;;;;;;18.17;10.00;;;;;;;-146.07;100.00;70291.31;10431920;28;20029;-77
2023/05/01 03:40:35;;;;;;;15.23;9.02;;;;;;;-146.07;100.00;70291.31;10432007;28;20047;-76
2023/05/01 03:45:35;;;;;;;10.90;7.55;;;;;;;-146.07;100.00;70291.31;10403925;28;20029;-76
2023/05/01 03:50:36;;;;;;;10.80;7.78;;;;;;;-146.07;100.00;70291.31;10431832;28;20046;-76
2023/05/01 03:55:36;;;;;;;10.10;7.22;;;;;;;-146.07;100.00;70291.31;10432680;28;20082;-76
2023/05/01 04:00:37;;;;;;;12.10;7.63;;;;;;;-146.07;100.00;70291.31;10430722;28;20064;-77
2023/05/01 04:05:37;;;;;;;11.30;7.97;;;;;;;-146.07;100.00;70291.31;10412904;28;20032;-77
2023/05/01 04:10:48;;;;;;;12.25;8.40;;;;;;;-146.07;100.00;70291.31;10427861;28;20021;-77
2023/05/01 04:16:07;;;;;;;11.93;8.60;;;;;;;-146.07;100.00;70291.31;10402473;28;20156;-77
2023/05/01 04:21:07;;;;;;;13.77;8.20;;;;;;;-146.07;100.00;70291.31;10428494;28;20569;-77
2023/05/01 04:26:08;;;;;;;12.30;7.95;;;;;;;-146.07;100.00;70291.31;10429335;28;20458;-77
2023/05/01 04:31:09;;;;;;;11.35;7.75;;;;;;;-146.07;100.00;70291.31;10428671;28;20112;-77
2023/05/01 04:36:10;;;;;;;15.32;8.27;;;;;;;-146.07;100.00;70291.31;10429449;28;20023;-77
2023/05/01 04:41:10;;;;;;;15.35;8.27;;;;;;;-146.07;100.00;70291.31;10415092;28;20317;-77
2023/05/01 04:46:11;;;;;;;12.45;7.43;;;;;;;-146.07;100.00;70291.31;10429383;28;20028;-77
2023/05/01 04:51:14;;;;;;;18.17;8.20;;;;;;;-146.07;100.00;70291.31;10428627;28;20028;-77
2023/05/01 04:56:15;;;;;;;11.68;7.38;;;;;;;-146.07;100.00;70291.31;10428771;28;20086;-77
2023/05/01 05:01:15;;;;;;;11.13;7.43;;;;;;;-146.07;100.00;70291.31;10415407;28;20025;-78
2023/05/01 05:06:16;;;;;;;11.27;7.03;;;;;;;-146.07;100.00;70291.31;10428954;28;20503;-79
2023/05/01 05:11:19;;;;;;;13.77;7.38;;;;;;;-146.07;100.00;70291.31;10428046;28;20021;-79
2023/05/01 05:16:19;;;;;;;14.77;6.80;;;;;;;-146.07;100.00;70291.31;10410080;28;20052;-78
2023/05/01 05:21:20;;;;;;;11.10;6.25;;;;;;;-146.07;100.00;70291.31;10427837;28;20031;-77
2023/05/01 05:26:20;;;;;;;13.43;6.68;;;;;;;-146.07;100.00;70291.31;10426172;28;20777;-76
2023/05/01 05:31:22;;;;;;;8.38;5.88;;;;;;;-146.07;100.00;70291.31;10424640;28;20155;-75
2023/05/01 05:36:23;;;;;;;11.27;7.18;;;;;;;-146.07;100.00;70291.31;10404760;28;20032;-74
2023/05/01 05:41:25;;;;;;;13.02;7.60;;;;;;;-146.07;100.00;70291.31;10417075;28;20026;-73
2023/05/01 05:46:26;;;;;;;12.52;7.68;;;;;;;-146.07;100.00;70291.31;10406213;28;20032;-73
2023/05/01 05:51:26;;;;;;;15.07;8.00;;;;;;;-146.07;100.00;70291.31;10399075;28;20048;-73
2023/05/01 05:56:39;;;;;;;16.15;7.43;;;;;;;-146.07;100.00;70291.31;10407377;28;20412;-75
2023/05/01 06:01:41;;;;;;;9.98;7.05;;;;;;;-146.07;100.00;70291.31;10406160;28;20025;-73
2023/05/01 06:06:41;;;;;;;17.35;7.38;;;;;;;-146.07;100.00;70291.31;10405575;28;20016;-72
2023/05/01 06:11:42;;;;;;;16.60;8.17;;;;;;;-146.07;100.00;70291.31;10396541;28;20054;-74
2023/05/01 06:16:42;;;;;;;9.02;7.43;;;;;;;-146.07;100.00;70291.31;10404188;28;20075;-71
2023/05/01 06:21:43;;;;;;;14.38;6.18;;;;;;;-146.07;100.00;70291.31;10421311;28;20025;-72
2023/05/01 06:26:43;;;;;;;8.47;6.03;;;;;;;-146.07;100.00;70291.31;10421712;28;20033;-72
2023/05/01 06:31:44;;;;;;;15.55;6.28;;;;;;;-146.07;100.00;70291.31;10403133;28;20282;-73
2023/05/01 06:36:44;;;;;;;11.85;6.32;;;;;;;-146.07;100.00;70291.31;10420521;28;20419;-72
2023/05/01 06:41:46;;;;;;;16.23;7.00;;;;;;;-146.07;100.00;70291.31;10424566;28;20028;-73
2023/05/01 06:46:46;;;;;;;8.27;5.75;;;;;;;-146.07;100.00;70291.31;10429665;28;20444;-73
2023/05/01 06:51:47;;;;;;;8.65;5.28;;;;;;;-146.07;100.00;70291.31;10427006;28;20040;-73
2023/05/01 06:56:47;;;;;;;11.03;5.63;;;;;;;-146.07;100.00;70291.31;10410166;28;20033;-73
2023/05/01 07:01:48;;;;;;;7.83;5.03;;;;;;;-146.07;100.00;70291.31;10428458;28;20763;-73
2023/05/01 07:06:48;;;;;;;10.80;5.53;;;;;;;-146.07;100.00;70291.31;10429289;28;20120;-73
2023/05/01 07:11:49;;;;;;;10.93;5.43;;;;;;;-146.07;100.00;70291.31;10430915;28;20093;-73
2023/05/01 07:16:49;;;;;;;9.30;4.05;;;;;;;-146.07;100.00;70291.31;10423882;28;20080;-74
2023/05/01 07:21:50;;;;;;;9.38;4.43;;;;;;;-146.07;100.00;70291.31;10428526;28;20793;-74
2023/05/01 07:26:50;;;;;;;7.47;5.00;;;;;;;27.48;42.13;94871.16;10428522;28;20104;-74
2023/05/01 07:31:51;;;;;;;11.20;6.28;;;;;;;27.84;39.96;94865.16;10427367;28;20025;-74
2023/05/01 07:36:51;;;;;;;9.87;5.70;;;;;;;28.20;38.23;94865.47;10428772;28;20017;-72
2023/05/01 07:41:52;;;;;;;7.97;5.57;;;;;;;28.33;100.00;94858.47;10428203;28;20029;-72
2023/05/01 07:46:52;;;;;;;11.98;5.80;;;;;;;-146.07;100.00;70291.31;10427910;28;20028;-72
2023/05/01 07:51:54;;;;;;;9.63;5.03;;;;;;;-146.07;100.00;70291.31;10426045;28;20021;-72
2023/05/01 07:56:58;;;;;;;12.07;5.00;;;;;;;-146.07;100.00;70291.31;10427296;28;20441;-73
2023/05/01 08:01:59;;;;;;;10.70;5.32;;;;;;;-146.07;100.00;70291.31;10426989;28;20025;-74
2023/05/01 08:06:59;;;;;;;8.32;4.03;;;;;;;-146.07;100.00;70291.31;10427058;28;20096;-72
2023/05/01 08:12:02;;;;;;;8.73;4.43;;;;;;;-146.07;100.00;70291.31;10427210;28;20029;-73
2023/05/01 08:17:03;;;;;;;12.07;3.85;;;;;;;-146.07;100.00;70291.31;10427043;28;20728;-72
2023/05/01 08:22:03;;;;;;;8.95;4.07;;;;;;;-146.07;100.00;70291.31;10425972;28;20041;-73
2023/05/01 08:27:04;;;;;;;10.57;4.67;;;;;;;28.33;37.40;94858.47;10425920;28;20017;-73
2023/05/01 08:32:05;;;;;;;11.95;4.07;;;;;;;-146.07;100.00;70291.31;10426010;28;20275;-72
2023/05/01 08:37:05;;;;;;;5.80;2.70;;;;;;;-146.07;100.00;70291.31;10426111;28;20424;-73
2023/05/01 08:42:07;;;;;;;5.45;3.63;;;;;;;-146.07;100.00;70291.31;10426377;28;20101;-73
2023/05/01 08:47:12;;;;;;;6.65;3.10;;;;;;;-146.07;100.00;70291.31;10425515;28;20521;-72
2023/05/01 08:52:14;;;;;;;1.45;1.08;;;;;;;-146.07;100.00;70291.31;10425213;28;20452;-72
2023/05/01 08:57:16;;;;;;;3.47;1.85;;;;;;;-146.07;100.00;70291.31;10425806;28;20134;-73
2023/05/01 09:02:17;;;;;;;2.17;1.38;;;;;;;-146.07;100.00;70291.31;10425078;28;20024;-74
2023/05/01 09:07:17;;;;;;;3.78;1.65;;;;;;;-146.07;100.00;70291.31;10425524;28;20052;-73
2023/05/01 09:12:23;;;;;;;3.35;1.73;;;;;;;-146.07;100.00;70291.31;10425061;28;20060;-73
2023/05/01 09:17:24;;;;;;;3.40;1.83;;;;;;;-146.07;100.00;70291.31;10424282;28;20021;-72
2023/05/01 09:22:25;;;;;;;3.03;1.73;;;;;;;-146.07;100.00;70291.31;10423546;28;20099;-74
2023/05/01 09:27:26;;;;;;;2.92;1.60;;;;;;;-146.07;100.00;70291.31;10425648;28;20037;-74
2023/05/01 09:32:27;;;;;;;2.55;1.60;;;;;;;-146.07;100.00;70291.31;10423612;28;20542;-74
2023/05/01 09:37:32;;;;;;;4.90;1.98;;;;;;;-146.07;100.00;70291.31;10405914;28;20051;-73
2023/05/01 09:42:34;;;;;;;4.33;1.40;;;;;;;-146.07;100.00;70291.31;10423524;28;20029;-73
2023/05/01 09:47:35;;;;;;;2.95;1.48;;;;;;;-146.07;100.00;70291.31;10422797;28;20102;-73
2023/05/01 09:52:36;;;;;;;2.22;1.48;;;;;;;-146.07;100.00;70291.31;10405163;28;20733;-72
2023/05/01 09:57:37;;;;;;;3.63;2.13;;;;;;;-146.07;100.00;70291.31;10422788;28;20036;-72
2023/05/01 10:02:38;;;;;;;2.10;1.20;;;;;;;-146.07;100.00;70291.31;10422798;28;20044;-72
2023/05/01 10:07:54;;;;;;;4.00;1.20;;;;;;;-146.07;100.00;70291.31;10422559;28;20143;-72
2023/05/01 10:12:55;;;;;;;;;;;;;;;-146.07;100.00;70291.31;10422852;28;20092;-72
2023/05/01 10:17:56;;;;;;;4.75;1.17;;;;;;;-146.07;100.00;70291.31;10421399;28;19917;-72
2023/05/01 10:22:57;;;;;;;3.28;1.25;;;;;;;-146.07;100.00;70291.31;10422180;28;20029;-73
2023/05/01 10:28:02;;;;;;;7.07;1.50;;;;;;;-146.07;100.00;70291.31;10422616;28;20029;-72
2023/05/01 10:33:04;;;;;;;2.10;1.30;;;;;;;-146.07;100.00;70291.31;10421653;28;20078;-73
2023/05/01 10:38:08;;;;;;;4.25;1.25;;;;;;;-146.07;100.00;70291.31;10422035;28;20106;-72
2023/05/01 10:43:18;;;;;;;2.75;1.48;;;;;;;-146.07;100.00;70291.31;10421941;28;20151;-72
2023/05/01 10:48:36;;;;;;;1.30;1.10;;;;;;;-146.07;100.00;70291.31;10420183;28;20029;-72
2023/05/01 10:53:38;;;;;;;2.38;1.45;;;;;;;-146.07;100.00;70291.31;10419732;28;20419;-72
2023/05/01 10:58:39;;;;;;;4.38;2.13;;;;;;;-146.07;100.00;70291.31;10403167;28;20020;-73
2023/05/01 11:03:39;;;;;;;1.30;1.20;;;;;;;-146.07;100.00;70291.31;10421227;28;20029;-72
2023/05/01 11:08:40;;;;;;;2.28;1.50;;;;;;;-146.07;100.00;70291.31;10419823;28;20032;-72
2023/05/01 11:14:03;;;;;;;3.58;1.90;;;;;;;-146.07;100.00;70291.31;10420308;28;20048;-73
2023/05/01 11:19:10;;;;;;;2.65;1.42;;;;;;;-146.07;100.00;70291.31;10418705;28;20093;-72
2023/05/01 11:24:11;;;;;;;1.80;1.50;;;;;;;-146.07;100.00;70291.31;10420779;28;20103;-73
2023/05/01 11:29:16;;;;;;;7.15;1.38;;;;;;;-146.07;100.00;70291.31;10424212;28;20041;-72
2023/05/01 11:34:17;;;;;;;13.02;2.25;;;;;;;28.33;37.40;94858.47;10426697;28;20037;-72
2023/05/01 11:39:18;;;;;;;4.35;1.90;;;;;;;23.18;100.00;94817.72;10428218;28;20048;-72
2023/05/01 11:45:02;;;;;;;3.10;1.50;;;;;;;-146.07;100.00;70291.31;10409921;28;20471;-75
2023/05/01 11:50:03;;;;;;;3.95;1.33;;;;;;;-146.07;100.00;70291.31;10409641;28;20037;-73
2023/05/01 11:55:04;;;;;;;1.67;1.40;;;;;;;-146.07;100.00;70291.31;10426729;28;20025;-73
2023/05/01 12:00:09;;;;;;;3.97;1.40;;;;;;;-146.07;100.00;70291.31;10427180;28;20136;-73
2023/05/01 12:05:23;;;;;;;3.78;1.27;;;;;;;-146.07;100.00;70291.31;10425533;28;20399;-73
2023/05/01 12:10:24;;;;;;;1.60;1.20;;;;;;;-146.07;100.00;70291.31;10428799;28;20089;-73
2023/05/01 12:15:25;;;;;;;1.92;1.15;;;;;;;-146.07;100.00;70291.31;10426093;28;20717;-73
2023/05/01 12:20:43;;;;;;;1.50;1.13;;;;;;;-146.07;100.00;70291.31;10408490;28;20461;-73
2023/05/01 12:25:45;;;;;;;1.05;0.80;;;;;;;-146.07;100.00;70291.31;10426626;28;20107;-73
2023/05/01 12:30:47;;;;;;;1.35;0.98;;;;;;;-146.07;100.00;70291.31;10425354;28;20075;-73
2023/05/01 12:35:49;;;;;;;0.75;0.75;;;;;;;-146.07;100.00;70291.31;10426983;28;20029;-72
2023/05/01 12:40:55;;;;;;;2.00;0.98;;;;;;;-146.07;100.00;70291.31;10425142;28;20056;-72
2023/05/01 12:45:56;;;;;;;2.75;0.88;;;;;;;-146.07;100.00;70291.31;10425814;28;20039;-72
2023/05/01 12:50:56;;;;;;;1.10;0.80;;;;;;;-146.07;100.00;70291.31;10425736;28;20037;-72
2023/05/01 12:55:58;;;;;;;1.73;1.20;;;;;;;-146.07;100.00;70291.31;10425830;28;20131;-73
2023/05/01 13:00:58;;;;;;;1.90;1.10;;;;;;;-146.07;100.00;70291.31;10407675;28;20044;-72
2023/05/01 13:06:01;;;;;;;2.28;1.10;;;;;;;-146.07;100.00;70291.31;10425166;28;20035;-71
2023/05/01 13:11:16;;;;;;;1.13;0.90;;;;;;;-146.07;100.00;70291.31;10424724;28;20025;-71
2023/05/01 13:16:16;;;;;;;2.80;1.23;;;;;;;-146.07;100.00;70291.31;10424380;28;20072;-72
2023/05/01 13:21:21;;;;;;;2.42;1.83;;;;;;;-146.07;100.00;70291.31;10424248;28;20116;-71
2023/05/01 13:26:31;;;;;;;7.30;1.50;;;;;;;-146.07;100.00;70291.31;10424539;28;20074;-72
2023/05/01 13:31:31;;;;;;;2.28;1.40;;;;;;;-146.07;100.00;70291.31;10424033;28;20031;-72
2023/05/01 13:36:32;;;;;;;4.28;1.80;;;;;;;-146.07;100.00;70291.31;10423582;28;20025;-71
2023/05/01 13:41:34;;;;;;;2.53;1.25;;;;;;;-146.07;100.00;70291.31;10423303;28;20115;-72
2023/05/01 13:46:34;;;;;;;3.67;1.80;;;;;;;-146.07;100.00;70291.31;10423954;28;20102;-71
2023/05/01 13:51:41;;;;;;;4.35;1.50;;;;;;;-146.07;100.00;70291.31;10404691;28;20467;-72
2023/05/01 13:56:41;;;;;;;3.80;1.55;;;;;;;-146.07;100.00;70291.31;10423251;28;20029;-72
2023/05/01 14:01:45;;;;;;;2.53;1.35;;;;;;;-146.07;100.00;70291.31;10405804;28;20028;-71
2023/05/01 14:06:47;;;;;;;2.47;1.33;;;;;;;-146.07;100.00;70291.31;10423446;28;20029;-72
2023/05/01 14:11:47;;;;;;;2.28;1.20;;;;;;;-146.07;100.00;70291.31;10423077;28;20391;-71
2023/05/01 14:16:49;;;;;;;2.47;1.40;;;;;;;-146.07;100.00;70291.31;10423103;28;20075;-72
2023/05/01 14:21:50;;;;;;;4.40;1.23;;;;;;;-146.07;100.00;70291.31;10421983;28;20021;-72
2023/05/01 14:26:51;;;;;;;2.50;1.40;;;;;;;-146.07;100.00;70291.31;10422624;28;20388;-71
2023/05/01 14:31:51;;;;;;;1.92;1.17;;;;;;;-146.07;100.00;70291.31;10422719;28;20024;-72
2023/05/01 14:36:54;;;;;;;2.53;1.55;;;;;;;-146.07;100.00;70291.31;10422634;28;20047;-72
2023/05/01 14:41:57;;;;;;;2.25;1.08;;;;;;;-146.07;100.00;70291.31;10422126;28;20479;-72
2023/05/01 14:46:58;;;;;;;3.45;1.73;;;;;;;-146.07;100.00;70291.31;10422017;28;20045;-72
2023/05/01 14:51:58;;;;;;;3.28;1.50;;;;;;;-146.07;100.00;70291.31;10421673;28;20479;-72
2023/05/01 14:57:02;;;;;;;2.70;1.13;;;;;;;-146.07;100.00;70291.31;10421675;28;20099;-72
2023/05/01 15:02:03;;;;;;;1.40;1.30;;;;;;;-146.07;100.00;70291.31;10408890;28;20272;-72
2023/05/01 15:07:03;;;;;;;2.28;1.40;;;;;;;-146.07;100.00;70291.31;10429879;28;20040;-72
2023/05/01 15:12:04;;;;;;;1.40;1.13;;;;;;;-146.07;100.00;70291.31;10429849;28;20155;-73
2023/05/01 15:17:05;;;;;;;2.60;1.25;;;;;;;-146.07;100.00;70291.31;10411238;28;20033;-72
2023/05/01 15:22:06;;;;;;;2.65;1.50;;;;;;;-146.07;100.00;70291.31;10428888;28;20488;-73
2023/05/01 15:27:07;;;;;;;1.30;0.95;;;;;;;-146.07;100.00;70291.31;10428774;28;20055;-72
2023/05/01 15:32:07;;;;;;;1.90;1.20;;;;;;;-146.07;100.00;70291.31;10429182;28;20051;-72
2023/05/01 15:37:08;;;;;;;1.80;1.35;;;;;;;-146.07;100.00;70291.31;10428266;28;20044;-72
2023/05/01 15:42:08;;;;;;;2.83;1.25;;;;;;;-146.07;100.00;70291.31;10410065;28;20538;-72
2023/05/01 15:47:09;;;;;;;7.13;1.52;;;;;;;-146.07;100.00;70291.31;10428060;28;20028;-71
2023/05/01 15:52:10;;;;;;;1.90;0.93;;;;;;;-146.07;100.00;70291.31;10427626;28;20021;-73
2023/05/01 15:57:10;;;;;;;2.55;1.85;;;;;;;-146.07;100.00;70291.31;10427680;28;20033;-72
2023/05/01 16:02:11;;;;;;;1.52;1.15;;;;;;;-146.07;100.00;70291.31;10427754;28;20419;-72
2023/05/01 16:07:12;;;;;;;2.35;1.70;;;;;;;-146.07;100.00;70291.31;10426978;28;20039;-73
2023/05/01 16:12:12;;;;;;;3.78;2.85;;;;;;;-146.07;100.00;70291.31;10427530;28;20057;-72
2023/05/01 16:17:17;;;;;;;4.50;1.90;;;;;;;-146.07;100.00;70291.31;10426423;28;20458;-71
2023/05/01 16:22:20;;;;;;;5.35;1.85;;;;;;;-146.07;100.00;70291.31;10426266;28;20029;-72
2023/05/01 16:27:23;;;;;;;2.75;1.98;;;;;;;-146.07;100.00;70291.31;10424369;28;20577;-72
2023/05/01 16:32:33;;;;;;;2.55;1.73;;;;;;;-146.07;100.00;70291.31;10423028;28;20044;-79
2023/05/01 16:37:42;;;;;;;4.72;1.70;;;;;;;-146.07;100.00;70291.31;10421907;28;20037;-79
2023/05/01 16:42:53;;;;;;;4.38;1.75;;;;;;;-146.07;100.00;70291.31;10408478;28;20040;-71
2023/05/01 16:47:55;;;;;;;6.32;2.45;;;;;;;-146.07;100.00;70291.31;10419364;28;20106;-72
2023/05/01 16:52:57;;;;;;;3.70;1.90;;;;;;;-146.07;100.00;70291.31;10423606;28;20041;-71
2023/05/01 16:58:01;;;;;;;3.80;2.15;;;;;;;-146.07;100.00;70291.31;10405982;28;20076;-71
2023/05/01 17:03:02;;;;;;;5.88;2.28;;;;;;;-146.07;100.00;70291.31;10422953;28;20147;-71
2023/05/01 17:08:03;;;;;;;6.68;2.47;;;;;;;-146.07;100.00;70291.31;10420750;28;20457;-71
2023/05/01 17:13:05;;;;;;;3.67;2.42;;;;;;;-146.07;100.00;70291.31;10419296;28;20412;-71
2023/05/01 17:18:06;;;;;;;5.35;2.17;;;;;;;-146.07;100.00;70291.31;10419524;28;20114;-76
2023/05/01 17:23:28;;;;;;;5.38;2.88;;;;;;;-146.07;100.00;70291.31;10400983;28;20123;-75
2023/05/01 17:28:28;;;;;;;2.97;2.40;;;;;;;-146.07;100.00;70291.31;10402352;28;20126;-74
2023/05/01 17:33:29;;;;;;;5.25;2.85;;;;;;;-146.07;100.00;70291.31;10423676;28;20044;-77
2023/05/01 17:38:30;;;;;;;3.95;2.42;;;;;;;-146.07;100.00;70291.31;10403977;28;20079;-76
2023/05/01 17:43:30;;;;;;;5.03;2.97;;;;;;;-146.07;100.00;70291.31;10423183;28;20444;-74
2023/05/01 17:48:32;;;;;;;4.82;2.72;;;;;;;-146.07;100.00;70291.31;10421360;28;20441;-75
2023/05/01 17:53:36;;;;;;;13.65;4.90;;;;;;;-146.07;100.00;70291.31;10404947;28;20430;-76
2023/05/01 17:58:37;;;;;;;5.90;2.63;;;;;;;-146.07;100.00;70291.31;10406933;28;20032;-76
2023/05/01 18:03:38;;;;;;;4.93;3.15;;;;;;;-146.07;100.00;70291.31;10421066;28;20029;-75
2023/05/01 18:08:38;;;;;;;7.20;2.80;;;;;;;-146.07;100.00;70291.31;10421909;28;20728;-75
2023/05/01 18:13:41;;;;;;;5.25;2.70;;;;;;;-146.07;100.00;70291.31;10422477;28;20045;-74
2023/05/01 18:18:41;;;;;;;6.90;3.15;;;;;;;-146.07;100.00;70291.31;10421868;28;20033;-75
2023/05/01 18:23:42;;;;;;;3.78;2.45;;;;;;;-146.07;100.00;70291.31;10423122;28;20029;-73
2023/05/01 18:28:42;;;;;;;6.82;3.10;;;;;;;-146.07;100.00;70291.31;10423160;28;20029;-72
2023/05/01 18:33:43;;;;;;;8.17;5.30;;;;;;;-146.07;100.00;70291.31;10407767;28;20455;-72
2023/05/01 18:38:43;;;;;;;4.30;2.50;;;;;;;-146.07;100.00;70291.31;10424660;28;20287;-72
2023/05/01 18:43:44;;;;;;;4.10;2.88;;;;;;;-146.07;100.00;70291.31;10431847;28;20024;-73
2023/05/01 18:48:45;;;;;;;7.63;3.40;;;;;;;-146.07;100.00;70291.31;10413680;28;20033;-70
2023/05/01 18:53:45;;;;;;;5.38;3.30;;;;;;;-146.07;100.00;70291.31;10414592;28;20032;-77
2023/05/01 18:58:46;;;;;;;5.85;2.50;;;;;;;-146.07;100.00;70291.31;10387942;28;20144;-73
2023/05/01 19:03:46;;;;;;;4.80;2.63;;;;;;;-146.07;100.00;70291.31;10404168;28;20471;-75
2023/05/01 19:08:47;;;;;;;3.53;2.60;;;;;;;-146.07;100.00;70291.31;10399503;28;20029;-75
2023/05/01 19:13:47;;;;;;;3.25;2.40;;;;;;;-146.07;100.00;70291.31;10405088;28;20067;-70
2023/05/01 19:18:48;;;;;;;3.00;2.65;;;;;;;-146.07;100.00;70291.31;10402744;28;20120;-71
2023/05/01 19:23:48;;;;;;;3.92;3.05;;;;;;;-146.07;100.00;70291.31;10403161;28;20488;-74
2023/05/01 19:28:49;;;;;;;4.93;2.95;;;;;;;-146.07;100.00;70291.31;10393729;28;20051;-70
2023/05/01 19:33:50;;;;;;;6.95;3.90;;;;;;;-146.07;100.00;70291.31;10400274;28;20030;-71
2023/05/01 19:38:51;;;;;;;11.45;3.63;;;;;;;-146.07;100.00;70291.31;10399449;28;20418;-72
2023/05/01 19:43:54;;;;;;;3.97;2.85;;;;;;;-146.07;100.00;70291.31;10403038;28;20028;-77
2023/05/01 19:48:58;;;;;;;4.00;2.50;;;;;;;-146.07;100.00;70291.31;10427541;28;20122;-73
2023/05/01 19:53:58;;;;;;;5.00;3.30;;;;;;;-146.07;100.00;70291.31;10411822;28;20471;-76
2023/05/01 19:58:59;;;;;;;5.07;2.85;;;;;;;-146.07;100.00;70291.31;10427076;28;20041;-77
2023/05/01 20:03:59;;;;;;;5.72;2.40;;;;;;;-146.07;100.00;70291.31;10429078;28;20111;-76
2023/05/01 20:09:00;;;;;;;3.33;2.60;;;;;;;-146.07;100.00;70291.31;10429172;28;20032;-76
2023/05/01 20:14:02;;;;;;;9.18;3.63;;;;;;;-146.07;100.00;70291.31;10427136;28;20075;-77
2023/05/01 20:19:02;;;;;;;6.25;3.10;;;;;;;-146.07;100.00;70291.31;10426198;28;20029;-77
2023/05/01 20:24:03;;;;;;;3.78;2.28;;;;;;;-146.07;100.00;70291.31;10408046;28;20025;-76
2023/05/01 20:29:03;;;;;;;4.43;2.33;;;;;;;-146.07;100.00;70291.31;10427735;28;20025;-77
2023/05/01 20:34:04;;;;;;;4.47;2.50;;;;;;;-146.07;100.00;70291.31;10428911;28;20523;-76
2023/05/01 20:39:05;;;;;;;6.10;3.03;;;;;;;-146.07;100.00;70291.31;10426993;28;20033;-76
2023/05/01 20:44:05;;;;;;;6.00;2.30;;;;;;;-146.07;100.00;70291.31;10427557;28;20037;-76
2023/05/01 20:49:08;;;;;;;8.68;3.78;;;;;;;-146.07;100.00;70291.31;10427890;28;20025;-76
2023/05/01 20:54:15;;;;;;;4.80;3.03;;;;;;;-146.07;100.00;70291.31;10427531;28;20387;-76
2023/05/01 20:59:15;;;;;;;3.42;2.60;;;;;;;-146.07;100.00;70291.31;10428178;28;20021;-76
2023/05/01 21:04:16;;;;;;;4.15;2.50;;;;;;;-146.07;100.00;70291.31;10427651;28;20056;-76
2023/05/01 21:09:18;;;;;;;5.00;3.63;;;;;;;-146.07;100.00;70291.31;10426636;28;20490;-76
2023/05/01 21:14:18;;;;;;;3.67;3.15;;;;;;;-146.07;100.00;70291.31;10408751;28;20084;-77
2023/05/01 21:19:19;;;;;;;4.90;3.15;;;;;;;-146.07;100.00;70291.31;10427426;28;20048;-76
2023/05/01 21:24:23;;;;;;;4.80;3.38;;;;;;;-146.07;100.00;70291.31;10426757;28;20032;-77
2023/05/01 22:42:06;;;;;;;6.40;4.05;;;;;;;-146.07;100.00;70291.31;10329854;28;20477;-77
2023/05/01 22:47:06;;;;;;;6.72;4.63;;;;;;;-146.07;100.00;70291.31;10358099;28;20169;-76
2023/05/01 22:52:07;;;;;;;7.55;4.18;;;;;;;-146.07;100.00;70291.31;10341614;28;20102;-76
2023/05/01 22:57:07;;;;;;;4.35;3.65;;;;;;;-146.07;100.00;70291.31;10328891;28;20068;-76
2023/05/01 23:02:08;;;;;;;7.13;3.90;;;;;;;-146.07;100.00;70291.31;10341163;28;20121;-76
2023/05/01 23:07:09;;;;;;;6.88;3.55;;;;;;;-146.07;100.00;70291.31;10341890;28;20022;-77
2023/05/01 23:12:17;;;;;;;4.30;3.22;;;;;;;-146.07;100.00;70291.31;10342930;28;20014;-77
2023/05/01 23:17:17;;;;;;;5.30;3.50;;;;;;;-146.07;100.00;70291.31;10342063;28;20033;-77
2023/05/01 23:22:18;;;;;;;5.88;4.15;;;;;;;-146.07;100.00;70291.31;10343197;28;20094;-75
2023/05/01 23:27:18;;;;;;;4.35;3.70;;;;;;;-146.07;100.00;70291.31;10348431;28;20037;-77
2023/05/01 23:32:28;;;;;;;6.70;5.20;;;;;;;-146.07;100.00;70291.31;10364694;28;20072;-75
2023/05/01 23:37:28;;;;;;;6.03;3.85;;;;;;;-146.07;100.00;70291.31;10357728;28;20056;-75
2023/05/01 23:42:29;;;;;;;5.88;3.85;;;;;;;-146.07;100.00;70291.31;10431054;28;20445;-75
2023/05/01 23:47:30;;;;;;;5.25;3.97;;;;;;;-146.07;100.00;70291.31;10430904;28;20163;-75